sensor_id;sensor_type;location;lat;lon;timestamp;P1;durP1;ratioP1;P2;durP2;ratioP2
14203;SDS011;7185;51.854;6.622;2024-01-10T00:00:23;10.15;;;5.28;;
14203;SDS011;7185;51.854;6.622;2024-01-10T00:02:55;9.82;;;5.20;;
14203;SDS011;7185;51.854;6.622;2024-01-10T00:05:27;13.88;;;5.63;;
14203;SDS011;7185;51.854;6.622;2024-01-10T00:07:59;10.38;;;5.35;;
14203;SDS011;7185;51.854;6.622;2024-01-10T00:10:32;10.38;;;5.20;;
14203;SDS011;7185;51.854;6.622;2024-01-10T00:13:03;12.55;;;5.47;;
14203;SDS011;7185;51.854;6.622;2024-01-10T00:15:35;11.68;;;5.85;;
14203;SDS011;7185;51.854;6.622;2024-01-10T00:18:07;8.98;;;4.97;;
14203;SDS011;7185;51.854;6.622;2024-01-10T00:20:39;12.00;;;5.68;;
14203;SDS011;7185;51.854;6.622;2024-01-10T00:23:10;12.50;;;5.25;;
14203;SDS011;7185;51.854;6.622;2024-01-10T00:25:43;10.52;;;5.53;;
14203;SDS011;7185;51.854;6.622;2024-01-10T00:28:15;11.20;;;5.43;;
14203;SDS011;7185;51.854;6.622;2024-01-10T00:30:48;9.43;;;5.03;;
14203;SDS011;7185;51.854;6.622;2024-01-10T00:33:19;10.68;;;5.50;;
14203;SDS011;7185;51.854;6.622;2024-01-10T00:35:51;11.27;;;5.78;;
14203;SDS011;7185;51.854;6.622;2024-01-10T00:38:23;13.10;;;5.60;;
14203;SDS011;7185;51.854;6.622;2024-01-10T00:40:56;9.38;;;5.10;;
14203;SDS011;7185;51.854;6.622;2024-01-10T00:43:27;10.02;;;5.32;;
14203;SDS011;7185;51.854;6.622;2024-01-10T00:45:59;9.85;;;5.25;;
14203;SDS011;7185;51.854;6.622;2024-01-10T00:48:30;11.55;;;5.20;;
14203;SDS011;7185;51.854;6.622;2024-01-10T00:54:46;12.02;;;6.47;;
14203;SDS011;7185;51.854;6.622;2024-01-10T00:57:19;9.75;;;5.20;;
14203;SDS011;7185;51.854;6.622;2024-01-10T00:59:51;10.63;;;5.07;;
14203;SDS011;7185;51.854;6.622;2024-01-10T01:02:22;10.93;;;5.30;;
14203;SDS011;7185;51.854;6.622;2024-01-10T01:04:54;13.13;;;5.55;;
14203;SDS011;7185;51.854;6.622;2024-01-10T01:07:26;12.25;;;5.88;;
14203;SDS011;7185;51.854;6.622;2024-01-10T01:09:58;10.07;;;5.47;;
14203;SDS011;7185;51.854;6.622;2024-01-10T01:12:31;11.20;;;5.63;;
14203;SDS011;7185;51.854;6.622;2024-01-10T01:15:03;13.27;;;5.45;;
14203;SDS011;7185;51.854;6.622;2024-01-10T01:17:35;11.57;;;5.75;;
14203;SDS011;7185;51.854;6.622;2024-01-10T01:20:08;9.77;;;5.70;;
14203;SDS011;7185;51.854;6.622;2024-01-10T01:22:40;10.57;;;5.15;;
14203;SDS011;7185;51.854;6.622;2024-01-10T01:25:12;11.40;;;5.70;;
14203;SDS011;7185;51.854;6.622;2024-01-10T01:27:45;13.10;;;5.93;;
14203;SDS011;7185;51.854;6.622;2024-01-10T01:30:16;10.68;;;5.80;;
14203;SDS011;7185;51.854;6.622;2024-01-10T01:32:48;12.55;;;5.72;;
14203;SDS011;7185;51.854;6.622;2024-01-10T01:35:20;10.90;;;5.70;;
14203;SDS011;7185;51.854;6.622;2024-01-10T01:37:52;10.95;;;5.90;;
14203;SDS011;7185;51.854;6.622;2024-01-10T01:40:24;12.43;;;5.50;;
14203;SDS011;7185;51.854;6.622;2024-01-10T01:42:57;12.40;;;5.65;;
14203;SDS011;7185;51.854;6.622;2024-01-10T01:45:29;11.98;;;5.90;;
14203;SDS011;7185;51.854;6.622;2024-01-10T01:48:00;14.43;;;6.28;;
14203;SDS011;7185;51.854;6.622;2024-01-10T01:50:31;12.85;;;5.72;;
14203;SDS011;7185;51.854;6.622;2024-01-10T01:53:03;12.07;;;6.32;;
14203;SDS011;7185;51.854;6.622;2024-01-10T01:55:35;11.13;;;5.28;;
14203;SDS011;7185;51.854;6.622;2024-01-10T01:58:08;13.60;;;6.15;;
14203;SDS011;7185;51.854;6.622;2024-01-10T02:00:40;11.00;;;5.78;;
14203;SDS011;7185;51.854;6.622;2024-01-10T02:03:13;13.68;;;6.15;;
14203;SDS011;7185;51.854;6.622;2024-01-10T02:05:46;11.05;;;5.43;;
14203;SDS011;7185;51.854;6.622;2024-01-10T02:08:18;9.73;;;4.80;;
14203;SDS011;7185;51.854;6.622;2024-01-10T02:10:49;11.68;;;5.75;;
14203;SDS011;7185;51.854;6.622;2024-01-10T02:13:22;12.70;;;5.80;;
14203;SDS011;7185;51.854;6.622;2024-01-10T02:15:54;13.45;;;5.32;;
14203;SDS011;7185;51.854;6.622;2024-01-10T02:18:26;11.48;;;5.55;;
14203;SDS011;7185;51.854;6.622;2024-01-10T02:20:58;10.50;;;5.40;;
14203;SDS011;7185;51.854;6.622;2024-01-10T02:23:29;10.80;;;5.50;;
14203;SDS011;7185;51.854;6.622;2024-01-10T02:26:02;11.80;;;5.55;;
14203;SDS011;7185;51.854;6.622;2024-01-10T02:28:34;12.35;;;5.93;;
14203;SDS011;7185;51.854;6.622;2024-01-10T02:31:06;10.05;;;5.28;;
14203;SDS011;7185;51.854;6.622;2024-01-10T02:33:38;12.05;;;5.38;;
14203;SDS011;7185;51.854;6.622;2024-01-10T02:36:10;9.80;;;5.35;;
14203;SDS011;7185;51.854;6.622;2024-01-10T02:38:41;12.50;;;5.43;;
14203;SDS011;7185;51.854;6.622;2024-01-10T02:41:15;10.65;;;5.07;;
14203;SDS011;7185;51.854;6.622;2024-01-10T02:43:46;13.40;;;5.53;;
14203;SDS011;7185;51.854;6.622;2024-01-10T02:46:18;11.73;;;6.05;;
14203;SDS011;7185;51.854;6.622;2024-01-10T02:48:53;11.55;;;6.13;;
14203;SDS011;7185;51.854;6.622;2024-01-10T02:51:26;11.75;;;5.13;;
14203;SDS011;7185;51.854;6.622;2024-01-10T02:54:00;10.60;;;5.72;;
14203;SDS011;7185;51.854;6.622;2024-01-10T02:56:33;12.82;;;6.25;;
14203;SDS011;7185;51.854;6.622;2024-01-10T02:59:05;11.35;;;6.15;;
14203;SDS011;7185;51.854;6.622;2024-01-10T03:01:36;11.95;;;5.53;;
14203;SDS011;7185;51.854;6.622;2024-01-10T03:04:08;13.40;;;6.00;;
14203;SDS011;7185;51.854;6.622;2024-01-10T03:06:40;13.73;;;6.00;;
14203;SDS011;7185;51.854;6.622;2024-01-10T03:09:12;11.50;;;5.45;;
14203;SDS011;7185;51.854;6.622;2024-01-10T03:11:45;11.45;;;5.85;;
14203;SDS011;7185;51.854;6.622;2024-01-10T03:14:17;10.52;;;5.28;;
14203;SDS011;7185;51.854;6.622;2024-01-10T03:16:49;10.25;;;5.30;;
14203;SDS011;7185;51.854;6.622;2024-01-10T03:19:20;13.45;;;5.63;;
14203;SDS011;7185;51.854;6.622;2024-01-10T03:21:52;11.48;;;5.63;;
14203;SDS011;7185;51.854;6.622;2024-01-10T03:27:01;12.07;;;5.63;;
14203;SDS011;7185;51.854;6.622;2024-01-10T03:29:34;11.90;;;5.45;;
14203;SDS011;7185;51.854;6.622;2024-01-10T03:32:06;11.45;;;5.10;;
14203;SDS011;7185;51.854;6.622;2024-01-10T03:34:37;10.82;;;5.78;;
14203;SDS011;7185;51.854;6.622;2024-01-10T03:37:09;13.10;;;6.15;;
14203;SDS011;7185;51.854;6.622;2024-01-10T03:39:41;10.18;;;5.70;;
14203;SDS011;7185;51.854;6.622;2024-01-10T03:42:14;12.63;;;6.13;;
14203;SDS011;7185;51.854;6.622;2024-01-10T03:44:46;10.65;;;5.70;;
14203;SDS011;7185;51.854;6.622;2024-01-10T03:47:18;11.93;;;5.55;;
14203;SDS011;7185;51.854;6.622;2024-01-10T03:49:49;13.52;;;5.90;;
14203;SDS011;7185;51.854;6.622;2024-01-10T03:52:21;14.02;;;6.22;;
14203;SDS011;7185;51.854;6.622;2024-01-10T03:54:53;12.95;;;6.38;;
14203;SDS011;7185;51.854;6.622;2024-01-10T03:57:26;14.13;;;6.40;;
14203;SDS011;7185;51.854;6.622;2024-01-10T03:59:58;12.68;;;5.95;;
14203;SDS011;7185;51.854;6.622;2024-01-10T04:02:30;13.13;;;5.97;;
14203;SDS011;7185;51.854;6.622;2024-01-10T04:05:02;13.55;;;6.75;;
14203;SDS011;7185;51.854;6.622;2024-01-10T04:07:34;13.75;;;6.70;;
14203;SDS011;7185;51.854;6.622;2024-01-10T04:10:07;12.55;;;6.15;;
14203;SDS011;7185;51.854;6.622;2024-01-10T04:12:41;12.18;;;6.35;;
14203;SDS011;7185;51.854;6.622;2024-01-10T04:15:13;13.40;;;6.18;;
14203;SDS011;7185;51.854;6.622;2024-01-10T04:17:45;14.52;;;6.70;;
14203;SDS011;7185;51.854;6.622;2024-01-10T04:20:17;11.70;;;5.97;;
14203;SDS011;7185;51.854;6.622;2024-01-10T04:22:48;12.95;;;6.20;;
14203;SDS011;7185;51.854;6.622;2024-01-10T04:25:20;12.57;;;6.75;;
14203;SDS011;7185;51.854;6.622;2024-01-10T04:27:53;13.88;;;6.53;;
14203;SDS011;7185;51.854;6.622;2024-01-10T04:30:25;16.00;;;6.68;;
14203;SDS011;7185;51.854;6.622;2024-01-10T04:32:57;15.27;;;6.28;;
14203;SDS011;7185;51.854;6.622;2024-01-10T04:35:29;16.05;;;6.60;;
14203;SDS011;7185;51.854;6.622;2024-01-10T04:38:01;13.88;;;6.13;;
14203;SDS011;7185;51.854;6.622;2024-01-10T04:40:33;14.20;;;5.60;;
14203;SDS011;7185;51.854;6.622;2024-01-10T04:43:06;11.50;;;6.15;;
14203;SDS011;7185;51.854;6.622;2024-01-10T04:45:37;13.90;;;6.20;;
14203;SDS011;7185;51.854;6.622;2024-01-10T04:48:09;13.75;;;5.78;;
14203;SDS011;7185;51.854;6.622;2024-01-10T04:50:41;16.05;;;5.90;;
14203;SDS011;7185;51.854;6.622;2024-01-10T04:53:13;11.63;;;5.97;;
14203;SDS011;7185;51.854;6.622;2024-01-10T04:55:44;14.13;;;6.00;;
14203;SDS011;7185;51.854;6.622;2024-01-10T04:58:17;12.60;;;6.28;;
14203;SDS011;7185;51.854;6.622;2024-01-10T05:00:49;12.63;;;5.85;;
14203;SDS011;7185;51.854;6.622;2024-01-10T05:03:21;16.52;;;6.50;;
14203;SDS011;7185;51.854;6.622;2024-01-10T05:05:52;13.38;;;6.38;;
14203;SDS011;7185;51.854;6.622;2024-01-10T05:08:24;15.32;;;6.40;;
14203;SDS011;7185;51.854;6.622;2024-01-10T05:10:56;15.27;;;6.65;;
14203;SDS011;7185;51.854;6.622;2024-01-10T05:13:29;11.80;;;6.18;;
14203;SDS011;7185;51.854;6.622;2024-01-10T05:16:01;16.48;;;6.40;;
14203;SDS011;7185;51.854;6.622;2024-01-10T05:18:32;13.27;;;7.03;;
14203;SDS011;7185;51.854;6.622;2024-01-10T05:21:04;13.82;;;6.55;;
14203;SDS011;7185;51.854;6.622;2024-01-10T05:23:36;11.90;;;5.97;;
14203;SDS011;7185;51.854;6.622;2024-01-10T05:26:12;13.98;;;6.60;;
14203;SDS011;7185;51.854;6.622;2024-01-10T05:28:45;13.10;;;5.97;;
14203;SDS011;7185;51.854;6.622;2024-01-10T05:31:16;15.25;;;6.85;;
14203;SDS011;7185;51.854;6.622;2024-01-10T05:33:48;14.07;;;6.45;;
14203;SDS011;7185;51.854;6.622;2024-01-10T05:36:21;11.07;;;6.30;;
14203;SDS011;7185;51.854;6.622;2024-01-10T05:38:53;12.85;;;6.22;;
14203;SDS011;7185;51.854;6.622;2024-01-10T05:41:24;12.90;;;6.40;;
14203;SDS011;7185;51.854;6.622;2024-01-10T05:43:58;12.20;;;6.00;;
14203;SDS011;7185;51.854;6.622;2024-01-10T05:46:30;11.80;;;5.60;;
14203;SDS011;7185;51.854;6.622;2024-01-10T05:49:02;15.80;;;6.45;;
14203;SDS011;7185;51.854;6.622;2024-01-10T05:51:34;13.98;;;6.63;;
14203;SDS011;7185;51.854;6.622;2024-01-10T05:54:06;13.52;;;6.53;;
14203;SDS011;7185;51.854;6.622;2024-01-10T06:29:46;13.23;;;7.25;;
14203;SDS011;7185;51.854;6.622;2024-01-10T06:32:18;16.38;;;7.70;;
14203;SDS011;7185;51.854;6.622;2024-01-10T06:34:52;16.95;;;8.15;;
14203;SDS011;7185;51.854;6.622;2024-01-10T06:37:24;15.52;;;7.03;;
14203;SDS011;7185;51.854;6.622;2024-01-10T06:39:55;14.52;;;7.18;;
14203;SDS011;7185;51.854;6.622;2024-01-10T06:42:27;16.77;;;7.70;;
14203;SDS011;7185;51.854;6.622;2024-01-10T06:45:01;16.70;;;7.63;;
14203;SDS011;7185;51.854;6.622;2024-01-10T06:47:33;16.45;;;7.25;;
14203;SDS011;7185;51.854;6.622;2024-01-10T06:50:06;14.75;;;6.93;;
14203;SDS011;7185;51.854;6.622;2024-01-10T06:52:39;18.63;;;8.65;;
14203;SDS011;7185;51.854;6.622;2024-01-10T06:55:18;15.27;;;7.85;;
14203;SDS011;7185;51.854;6.622;2024-01-10T06:57:50;16.20;;;8.18;;
14203;SDS011;7185;51.854;6.622;2024-01-10T07:00:24;15.10;;;8.02;;
14203;SDS011;7185;51.854;6.622;2024-01-10T07:02:56;17.08;;;8.20;;
14203;SDS011;7185;51.854;6.622;2024-01-10T07:05:28;13.45;;;7.25;;
14203;SDS011;7185;51.854;6.622;2024-01-10T07:08:01;15.60;;;8.23;;
14203;SDS011;7185;51.854;6.622;2024-01-10T07:10:34;19.50;;;8.25;;
14203;SDS011;7185;51.854;6.622;2024-01-10T07:13:06;19.52;;;8.23;;
14203;SDS011;7185;51.854;6.622;2024-01-10T07:16:05;15.45;;;7.32;;
14203;SDS011;7185;51.854;6.622;2024-01-10T07:18:37;18.27;;;8.95;;
14203;SDS011;7185;51.854;6.622;2024-01-10T07:21:12;17.48;;;9.23;;
14203;SDS011;7185;51.854;6.622;2024-01-10T07:23:44;20.85;;;9.05;;
14203;SDS011;7185;51.854;6.622;2024-01-10T07:26:15;19.58;;;8.55;;
14203;SDS011;7185;51.854;6.622;2024-01-10T07:28:47;20.95;;;9.30;;
14203;SDS011;7185;51.854;6.622;2024-01-10T07:31:20;21.38;;;9.20;;
14203;SDS011;7185;51.854;6.622;2024-01-10T07:33:54;19.80;;;9.20;;
14203;SDS011;7185;51.854;6.622;2024-01-10T07:36:26;18.30;;;8.48;;
14203;SDS011;7185;51.854;6.622;2024-01-10T07:39:00;19.25;;;8.85;;
14203;SDS011;7185;51.854;6.622;2024-01-10T07:41:31;23.85;;;9.27;;
14203;SDS011;7185;51.854;6.622;2024-01-10T07:44:03;17.27;;;8.32;;
14203;SDS011;7185;51.854;6.622;2024-01-10T07:46:36;21.25;;;10.23;;
14203;SDS011;7185;51.854;6.622;2024-01-10T07:49:08;19.50;;;9.25;;
14203;SDS011;7185;51.854;6.622;2024-01-10T07:51:39;22.23;;;8.98;;
14203;SDS011;7185;51.854;6.622;2024-01-10T07:54:11;19.27;;;8.85;;
14203;SDS011;7185;51.854;6.622;2024-01-10T07:56:43;19.83;;;8.70;;
14203;SDS011;7185;51.854;6.622;2024-01-10T07:59:15;18.15;;;9.30;;
14203;SDS011;7185;51.854;6.622;2024-01-10T08:01:55;19.63;;;9.38;;
14203;SDS011;7185;51.854;6.622;2024-01-10T08:04:28;18.70;;;9.55;;
14203;SDS011;7185;51.854;6.622;2024-01-10T08:07:00;17.67;;;9.05;;
14203;SDS011;7185;51.854;6.622;2024-01-10T08:09:32;18.95;;;8.65;;
14203;SDS011;7185;51.854;6.622;2024-01-10T08:12:04;18.92;;;8.77;;
14203;SDS011;7185;51.854;6.622;2024-01-10T08:14:37;19.92;;;9.15;;
14203;SDS011;7185;51.854;6.622;2024-01-10T08:17:10;21.58;;;9.52;;
14203;SDS011;7185;51.854;6.622;2024-01-10T08:19:42;22.25;;;9.73;;
14203;SDS011;7185;51.854;6.622;2024-01-10T08:22:14;19.02;;;8.88;;
14203;SDS011;7185;51.854;6.622;2024-01-10T08:24:46;20.40;;;9.57;;
14203;SDS011;7185;51.854;6.622;2024-01-10T08:27:18;21.60;;;10.60;;
14203;SDS011;7185;51.854;6.622;2024-01-10T08:29:49;23.02;;;9.95;;
14203;SDS011;7185;51.854;6.622;2024-01-10T08:32:23;19.85;;;9.27;;
14203;SDS011;7185;51.854;6.622;2024-01-10T08:34:55;20.73;;;9.73;;
14203;SDS011;7185;51.854;6.622;2024-01-10T08:37:26;20.65;;;9.70;;
14203;SDS011;7185;51.854;6.622;2024-01-10T08:39:58;20.52;;;9.35;;
14203;SDS011;7185;51.854;6.622;2024-01-10T08:42:31;21.75;;;9.93;;
14203;SDS011;7185;51.854;6.622;2024-01-10T08:45:03;21.70;;;10.45;;
14203;SDS011;7185;51.854;6.622;2024-01-10T08:47:37;25.33;;;9.50;;
14203;SDS011;7185;51.854;6.622;2024-01-10T08:50:09;21.35;;;9.93;;
14203;SDS011;7185;51.854;6.622;2024-01-10T08:52:41;19.83;;;9.10;;
14203;SDS011;7185;51.854;6.622;2024-01-10T08:55:13;22.45;;;9.65;;
14203;SDS011;7185;51.854;6.622;2024-01-10T08:57:45;22.77;;;10.02;;
14203;SDS011;7185;51.854;6.622;2024-01-10T09:00:17;21.90;;;9.13;;
14203;SDS011;7185;51.854;6.622;2024-01-10T09:02:50;21.10;;;10.50;;
14203;SDS011;7185;51.854;6.622;2024-01-10T09:05:22;20.35;;;10.75;;
14203;SDS011;7185;51.854;6.622;2024-01-10T09:07:55;21.40;;;9.48;;
14203;SDS011;7185;51.854;6.622;2024-01-10T09:10:27;23.88;;;10.30;;
14203;SDS011;7185;51.854;6.622;2024-01-10T09:12:59;21.80;;;9.82;;
14203;SDS011;7185;51.854;6.622;2024-01-10T09:15:30;23.60;;;10.48;;
14203;SDS011;7185;51.854;6.622;2024-01-10T09:18:04;20.58;;;9.63;;
14203;SDS011;7185;51.854;6.622;2024-01-10T09:20:37;20.65;;;9.00;;
14203;SDS011;7185;51.854;6.622;2024-01-10T09:23:09;21.63;;;10.30;;
14203;SDS011;7185;51.854;6.622;2024-01-10T09:25:41;22.88;;;10.27;;
14203;SDS011;7185;51.854;6.622;2024-01-10T09:28:13;21.33;;;10.30;;
14203;SDS011;7185;51.854;6.622;2024-01-10T09:30:44;21.27;;;11.25;;
14203;SDS011;7185;51.854;6.622;2024-01-10T09:33:18;21.45;;;11.00;;
14203;SDS011;7185;51.854;6.622;2024-01-10T09:35:59;19.45;;;9.85;;
14203;SDS011;7185;51.854;6.622;2024-01-10T09:38:34;20.95;;;10.60;;
14203;SDS011;7185;51.854;6.622;2024-01-10T09:41:07;20.88;;;10.35;;
14203;SDS011;7185;51.854;6.622;2024-01-10T09:43:39;22.27;;;9.23;;
14203;SDS011;7185;51.854;6.622;2024-01-10T09:46:11;20.45;;;9.38;;
14203;SDS011;7185;51.854;6.622;2024-01-10T09:48:44;18.55;;;8.80;;
14203;SDS011;7185;51.854;6.622;2024-01-10T09:51:16;19.08;;;8.43;;
14203;SDS011;7185;51.854;6.622;2024-01-10T09:53:48;18.30;;;8.63;;
14203;SDS011;7185;51.854;6.622;2024-01-10T09:56:21;17.75;;;8.43;;
14203;SDS011;7185;51.854;6.622;2024-01-10T09:58:53;19.23;;;9.00;;
14203;SDS011;7185;51.854;6.622;2024-01-10T10:01:31;20.23;;;8.82;;
14203;SDS011;7185;51.854;6.622;2024-01-10T10:04:48;17.58;;;8.35;;
14203;SDS011;7185;51.854;6.622;2024-01-10T10:08:27;18.65;;;8.80;;
14203;SDS011;7185;51.854;6.622;2024-01-10T10:11:05;20.63;;;8.70;;
14203;SDS011;7185;51.854;6.622;2024-01-10T10:13:51;18.27;;;8.18;;
14203;SDS011;7185;51.854;6.622;2024-01-10T10:16:37;18.67;;;8.88;;
14203;SDS011;7185;51.854;6.622;2024-01-10T10:19:30;17.55;;;8.48;;
14203;SDS011;7185;51.854;6.622;2024-01-10T10:25:06;18.42;;;8.27;;
14203;SDS011;7185;51.854;6.622;2024-01-10T10:31:02;19.27;;;9.07;;
14203;SDS011;7185;51.854;6.622;2024-01-10T10:33:34;18.45;;;9.20;;
14203;SDS011;7185;51.854;6.622;2024-01-10T10:36:07;17.40;;;9.25;;
14203;SDS011;7185;51.854;6.622;2024-01-10T10:38:40;17.05;;;9.20;;
14203;SDS011;7185;51.854;6.622;2024-01-10T10:41:12;17.10;;;9.10;;
14203;SDS011;7185;51.854;6.622;2024-01-10T10:43:45;18.73;;;10.05;;
14203;SDS011;7185;51.854;6.622;2024-01-10T10:46:18;19.83;;;9.95;;
14203;SDS011;7185;51.854;6.622;2024-01-10T10:48:52;18.17;;;9.48;;
14203;SDS011;7185;51.854;6.622;2024-01-10T10:51:26;17.65;;;10.15;;
14203;SDS011;7185;51.854;6.622;2024-01-10T10:54:05;17.95;;;10.63;;
14203;SDS011;7185;51.854;6.622;2024-01-10T10:56:37;15.73;;;9.75;;
14203;SDS011;7185;51.854;6.622;2024-01-10T10:59:11;17.67;;;10.60;;
14203;SDS011;7185;51.854;6.622;2024-01-10T11:01:46;17.60;;;10.82;;
14203;SDS011;7185;51.854;6.622;2024-01-10T11:04:19;15.90;;;9.80;;
14203;SDS011;7185;51.854;6.622;2024-01-10T11:06:52;17.67;;;9.63;;
14203;SDS011;7185;51.854;6.622;2024-01-10T11:09:25;17.50;;;10.38;;
14203;SDS011;7185;51.854;6.622;2024-01-10T11:12:02;18.17;;;10.13;;
14203;SDS011;7185;51.854;6.622;2024-01-10T11:14:52;19.38;;;10.88;;
14203;SDS011;7185;51.854;6.622;2024-01-10T11:17:57;17.67;;;9.98;;
14203;SDS011;7185;51.854;6.622;2024-01-10T11:20:56;18.00;;;10.65;;
14203;SDS011;7185;51.854;6.622;2024-01-10T11:23:38;16.65;;;10.57;;
14203;SDS011;7185;51.854;6.622;2024-01-10T11:26:15;15.52;;;9.73;;
14203;SDS011;7185;51.854;6.622;2024-01-10T11:28:49;16.38;;;9.50;;
14203;SDS011;7185;51.854;6.622;2024-01-10T11:31:26;17.35;;;9.45;;
14203;SDS011;7185;51.854;6.622;2024-01-10T11:34:00;17.30;;;9.63;;
14203;SDS011;7185;51.854;6.622;2024-01-10T11:36:33;16.40;;;10.30;;
14203;SDS011;7185;51.854;6.622;2024-01-10T11:39:05;19.90;;;10.50;;
14203;SDS011;7185;51.854;6.622;2024-01-10T11:41:39;17.23;;;10.70;;
14203;SDS011;7185;51.854;6.622;2024-01-10T11:44:27;15.68;;;9.48;;
14203;SDS011;7185;51.854;6.622;2024-01-10T11:47:00;17.30;;;10.02;;
14203;SDS011;7185;51.854;6.622;2024-01-10T11:49:31;15.27;;;9.77;;
14203;SDS011;7185;51.854;6.622;2024-01-10T11:52:03;16.02;;;10.30;;
14203;SDS011;7185;51.854;6.622;2024-01-10T11:54:35;15.30;;;9.30;;
14203;SDS011;7185;51.854;6.622;2024-01-10T11:57:09;16.95;;;10.25;;
14203;SDS011;7185;51.854;6.622;2024-01-10T11:59:42;16.40;;;9.93;;
14203;SDS011;7185;51.854;6.622;2024-01-10T12:02:16;16.50;;;10.35;;
14203;SDS011;7185;51.854;6.622;2024-01-10T12:04:48;17.13;;;9.60;;
14203;SDS011;7185;51.854;6.622;2024-01-10T12:07:20;18.77;;;10.05;;
14203;SDS011;7185;51.854;6.622;2024-01-10T12:09:51;15.75;;;9.45;;
14203;SDS011;7185;51.854;6.622;2024-01-10T12:12:26;13.70;;;9.38;;
14203;SDS011;7185;51.854;6.622;2024-01-10T12:14:58;16.30;;;9.60;;
14203;SDS011;7185;51.854;6.622;2024-01-10T12:17:31;16.83;;;10.00;;
14203;SDS011;7185;51.854;6.622;2024-01-10T12:20:02;17.77;;;10.05;;
14203;SDS011;7185;51.854;6.622;2024-01-10T12:22:35;18.88;;;10.02;;
14203;SDS011;7185;51.854;6.622;2024-01-10T12:25:07;17.92;;;10.60;;
14203;SDS011;7185;51.854;6.622;2024-01-10T12:27:41;16.92;;;10.30;;
14203;SDS011;7185;51.854;6.622;2024-01-10T12:30:19;18.33;;;11.05;;
14203;SDS011;7185;51.854;6.622;2024-01-10T12:33:26;19.15;;;9.82;;
14203;SDS011;7185;51.854;6.622;2024-01-10T12:51:11;18.05;;;10.30;;
14203;SDS011;7185;51.854;6.622;2024-01-10T12:55:03;18.73;;;10.98;;
14203;SDS011;7185;51.854;6.622;2024-01-10T12:57:59;19.17;;;10.02;;
14203;SDS011;7185;51.854;6.622;2024-01-10T13:00:50;17.50;;;10.77;;
14203;SDS011;7185;51.854;6.622;2024-01-10T13:03:42;16.13;;;10.40;;
14203;SDS011;7185;51.854;6.622;2024-01-10T13:06:46;17.25;;;10.65;;
14203;SDS011;7185;51.854;6.622;2024-01-10T13:09:40;18.52;;;10.20;;
14203;SDS011;7185;51.854;6.622;2024-01-10T13:12:50;17.23;;;10.43;;
14203;SDS011;7185;51.854;6.622;2024-01-10T13:15:55;18.10;;;10.68;;
14203;SDS011;7185;51.854;6.622;2024-01-10T13:19:03;15.15;;;10.20;;
14203;SDS011;7185;51.854;6.622;2024-01-10T13:21:52;18.48;;;10.32;;
14203;SDS011;7185;51.854;6.622;2024-01-10T13:24:45;18.25;;;10.63;;
14203;SDS011;7185;51.854;6.622;2024-01-10T13:30:48;17.10;;;10.70;;
14203;SDS011;7185;51.854;6.622;2024-01-10T13:33:28;20.15;;;11.35;;
14203;SDS011;7185;51.854;6.622;2024-01-10T13:36:06;18.55;;;10.73;;
14203;SDS011;7185;51.854;6.622;2024-01-10T13:39:19;16.77;;;10.73;;
14203;SDS011;7185;51.854;6.622;2024-01-10T13:42:03;17.70;;;10.43;;
14203;SDS011;7185;51.854;6.622;2024-01-10T13:44:41;16.92;;;10.18;;
14203;SDS011;7185;51.854;6.622;2024-01-10T13:47:30;17.20;;;10.30;;
14203;SDS011;7185;51.854;6.622;2024-01-10T13:50:16;16.55;;;9.85;;
14203;SDS011;7185;51.854;6.622;2024-01-10T13:53:22;17.40;;;10.90;;
14203;SDS011;7185;51.854;6.622;2024-01-10T13:56:10;17.45;;;10.45;;
14203;SDS011;7185;51.854;6.622;2024-01-10T13:58:53;23.40;;;11.13;;
14203;SDS011;7185;51.854;6.622;2024-01-10T14:01:25;22.80;;;10.63;;
14203;SDS011;7185;51.854;6.622;2024-01-10T14:07:07;20.55;;;11.25;;
14203;SDS011;7185;51.854;6.622;2024-01-10T14:09:52;16.95;;;10.35;;
14203;SDS011;7185;51.854;6.622;2024-01-10T14:12:35;19.13;;;10.40;;
14203;SDS011;7185;51.854;6.622;2024-01-10T14:15:46;18.20;;;10.18;;
14203;SDS011;7185;51.854;6.622;2024-01-10T14:19:18;18.15;;;10.50;;
14203;SDS011;7185;51.854;6.622;2024-01-10T14:22:08;18.90;;;10.30;;
14203;SDS011;7185;51.854;6.622;2024-01-10T14:31:03;19.08;;;9.68;;
14203;SDS011;7185;51.854;6.622;2024-01-10T14:34:03;19.48;;;9.38;;
14203;SDS011;7185;51.854;6.622;2024-01-10T14:36:51;20.92;;;10.30;;
14203;SDS011;7185;51.854;6.622;2024-01-10T14:42:55;20.23;;;10.73;;
14203;SDS011;7185;51.854;6.622;2024-01-10T14:45:36;24.13;;;11.98;;
14203;SDS011;7185;51.854;6.622;2024-01-10T14:49:05;22.25;;;11.38;;
14203;SDS011;7185;51.854;6.622;2024-01-10T14:51:51;24.08;;;11.43;;
14203;SDS011;7185;51.854;6.622;2024-01-10T14:54:22;24.73;;;13.00;;
14203;SDS011;7185;51.854;6.622;2024-01-10T14:56:54;26.45;;;12.68;;
14203;SDS011;7185;51.854;6.622;2024-01-10T14:59:26;24.88;;;13.07;;
14203;SDS011;7185;51.854;6.622;2024-01-10T15:01:59;21.45;;;10.98;;
14203;SDS011;7185;51.854;6.622;2024-01-10T15:04:31;21.35;;;11.02;;
14203;SDS011;7185;51.854;6.622;2024-01-10T15:07:03;27.85;;;14.23;;
14203;SDS011;7185;51.854;6.622;2024-01-10T15:09:34;31.25;;;12.65;;
14203;SDS011;7185;51.854;6.622;2024-01-10T15:12:07;29.13;;;14.65;;
14203;SDS011;7185;51.854;6.622;2024-01-10T15:14:39;29.45;;;16.77;;
14203;SDS011;7185;51.854;6.622;2024-01-10T15:17:12;33.90;;;16.95;;
14203;SDS011;7185;51.854;6.622;2024-01-10T15:19:44;32.22;;;17.13;;
14203;SDS011;7185;51.854;6.622;2024-01-10T15:22:15;28.20;;;14.70;;
14203;SDS011;7185;51.854;6.622;2024-01-10T15:24:47;32.88;;;15.95;;
14203;SDS011;7185;51.854;6.622;2024-01-10T15:27:19;29.92;;;15.50;;
14203;SDS011;7185;51.854;6.622;2024-01-10T15:29:51;51.97;;;23.13;;
14203;SDS011;7185;51.854;6.622;2024-01-10T15:32:24;38.75;;;18.58;;
14203;SDS011;7185;51.854;6.622;2024-01-10T15:34:56;32.83;;;16.70;;
14203;SDS011;7185;51.854;6.622;2024-01-10T15:37:27;29.77;;;15.05;;
14203;SDS011;7185;51.854;6.622;2024-01-10T15:40:00;34.20;;;15.70;;
14203;SDS011;7185;51.854;6.622;2024-01-10T15:42:32;41.08;;;19.73;;
14203;SDS011;7185;51.854;6.622;2024-01-10T15:45:04;48.65;;;25.83;;
14203;SDS011;7185;51.854;6.622;2024-01-10T15:47:38;34.17;;;18.15;;
14203;SDS011;7185;51.854;6.622;2024-01-10T15:50:09;34.65;;;17.13;;
14203;SDS011;7185;51.854;6.622;2024-01-10T15:52:41;38.13;;;18.70;;
14203;SDS011;7185;51.854;6.622;2024-01-10T15:55:14;36.97;;;19.75;;
14203;SDS011;7185;51.854;6.622;2024-01-10T15:57:46;32.15;;;17.10;;
14203;SDS011;7185;51.854;6.622;2024-01-10T16:00:19;29.48;;;14.43;;
14203;SDS011;7185;51.854;6.622;2024-01-10T16:02:52;28.73;;;13.18;;
14203;SDS011;7185;51.854;6.622;2024-01-10T16:05:24;29.05;;;13.75;;
14203;SDS011;7185;51.854;6.622;2024-01-10T16:10:36;26.63;;;12.90;;
14203;SDS011;7185;51.854;6.622;2024-01-10T16:13:08;31.05;;;13.10;;
14203;SDS011;7185;51.854;6.622;2024-01-10T16:15:40;27.98;;;13.90;;
14203;SDS011;7185;51.854;6.622;2024-01-10T16:18:13;33.75;;;13.20;;
14203;SDS011;7185;51.854;6.622;2024-01-10T16:20:45;27.10;;;12.63;;
14203;SDS011;7185;51.854;6.622;2024-01-10T16:23:17;31.75;;;16.65;;
14203;SDS011;7185;51.854;6.622;2024-01-10T16:25:48;29.00;;;15.48;;
14203;SDS011;7185;51.854;6.622;2024-01-10T16:28:20;26.25;;;15.10;;
14203;SDS011;7185;51.854;6.622;2024-01-10T16:30:52;25.98;;;14.50;;
14203;SDS011;7185;51.854;6.622;2024-01-10T16:33:25;31.83;;;15.18;;
14203;SDS011;7185;51.854;6.622;2024-01-10T16:35:57;30.45;;;16.10;;
14203;SDS011;7185;51.854;6.622;2024-01-10T16:38:31;29.58;;;15.98;;
14203;SDS011;7185;51.854;6.622;2024-01-10T16:41:03;34.95;;;16.88;;
14203;SDS011;7185;51.854;6.622;2024-01-10T16:43:35;35.95;;;15.55;;
14203;SDS011;7185;51.854;6.622;2024-01-10T16:46:12;34.28;;;16.23;;
14203;SDS011;7185;51.854;6.622;2024-01-10T16:48:46;33.53;;;15.82;;
14203;SDS011;7185;51.854;6.622;2024-01-10T16:51:18;30.58;;;15.10;;